sensor_id;sensor_type;location;lat;lon;timestamp;P1;durP1;ratioP1;P2;durP2;ratioP2
5704;SDS011;2877;48.238;11.160;2023-04-25T00:02:20;2.07;;;1.97;;
5704;SDS011;2877;48.238;11.160;2023-04-25T00:04:45;2.93;;;2.00;;
5704;SDS011;2877;48.238;11.160;2023-04-25T00:07:13;1.87;;;1.73;;
5704;SDS011;2877;48.238;11.160;2023-04-25T00:09:39;2.27;;;2.00;;
5704;SDS011;2877;48.238;11.160;2023-04-25T00:12:05;2.10;;;2.00;;
5704;SDS011;2877;48.238;11.160;2023-04-25T00:14:31;2.43;;;2.07;;
5704;SDS011;2877;48.238;11.160;2023-04-25T00:16:59;2.30;;;2.20;;
5704;SDS011;2877;48.238;11.160;2023-04-25T00:19:24;5.13;;;1.80;;
5704;SDS011;2877;48.238;11.160;2023-04-25T00:21:51;2.73;;;2.13;;
5704;SDS011;2877;48.238;11.160;2023-04-25T00:24:18;3.53;;;2.10;;
5704;SDS011;2877;48.238;11.160;2023-04-25T00:26:44;1.90;;;1.80;;
5704;SDS011;2877;48.238;11.160;2023-04-25T00:29:09;2.10;;;1.80;;
5704;SDS011;2877;48.238;11.160;2023-04-25T00:31:35;1.90;;;1.80;;
5704;SDS011;2877;48.238;11.160;2023-04-25T00:34:01;2.30;;;2.10;;
5704;SDS011;2877;48.238;11.160;2023-04-25T00:36:26;2.47;;;2.00;;
5704;SDS011;2877;48.238;11.160;2023-04-25T00:38:52;2.70;;;2.40;;
5704;SDS011;2877;48.238;11.160;2023-04-25T00:41:19;1.90;;;1.80;;
5704;SDS011;2877;48.238;11.160;2023-04-25T00:43:45;5.37;;;2.50;;
5704;SDS011;2877;48.238;11.160;2023-04-25T00:46:12;2.63;;;2.00;;
5704;SDS011;2877;48.238;11.160;2023-04-25T00:48:38;2.23;;;2.03;;
5704;SDS011;2877;48.238;11.160;2023-04-25T00:51:03;2.67;;;2.20;;
5704;SDS011;2877;48.238;11.160;2023-04-25T00:53:29;3.43;;;2.47;;
5704;SDS011;2877;48.238;11.160;2023-04-25T00:55:57;2.60;;;1.70;;
5704;SDS011;2877;48.238;11.160;2023-04-25T00:58:22;2.30;;;2.10;;
5704;SDS011;2877;48.238;11.160;2023-04-25T01:00:48;2.03;;;1.83;;
5704;SDS011;2877;48.238;11.160;2023-04-25T01:03:16;2.83;;;2.10;;
5704;SDS011;2877;48.238;11.160;2023-04-25T01:05:45;2.37;;;2.17;;
5704;SDS011;2877;48.238;11.160;2023-04-25T01:08:12;2.60;;;2.37;;
5704;SDS011;2877;48.238;11.160;2023-04-25T01:10:38;2.30;;;2.10;;
5704;SDS011;2877;48.238;11.160;2023-04-25T01:13:03;2.00;;;1.90;;
5704;SDS011;2877;48.238;11.160;2023-04-25T01:15:29;2.10;;;2.00;;
5704;SDS011;2877;48.238;11.160;2023-04-25T01:17:55;1.93;;;1.83;;
5704;SDS011;2877;48.238;11.160;2023-04-25T01:20:22;2.53;;;2.33;;
5704;SDS011;2877;48.238;11.160;2023-04-25T01:22:48;2.50;;;1.73;;
5704;SDS011;2877;48.238;11.160;2023-04-25T01:25:16;1.80;;;1.70;;
5704;SDS011;2877;48.238;11.160;2023-04-25T01:27:42;1.90;;;1.80;;
5704;SDS011;2877;48.238;11.160;2023-04-25T01:30:08;2.33;;;2.10;;
5704;SDS011;2877;48.238;11.160;2023-04-25T01:32:34;2.27;;;2.13;;
5704;SDS011;2877;48.238;11.160;2023-04-25T01:35:10;2.50;;;2.30;;
5704;SDS011;2877;48.238;11.160;2023-04-25T01:37:37;2.60;;;2.40;;
5704;SDS011;2877;48.238;11.160;2023-04-25T01:40:06;3.27;;;2.30;;
5704;SDS011;2877;48.238;11.160;2023-04-25T01:42:33;2.20;;;2.10;;
5704;SDS011;2877;48.238;11.160;2023-04-25T01:45:00;3.27;;;2.20;;
5704;SDS011;2877;48.238;11.160;2023-04-25T01:47:26;3.90;;;1.83;;
5704;SDS011;2877;48.238;11.160;2023-04-25T01:49:52;2.40;;;2.20;;
5704;SDS011;2877;48.238;11.160;2023-04-25T01:52:18;2.53;;;2.00;;
5704;SDS011;2877;48.238;11.160;2023-04-25T01:54:43;2.03;;;1.90;;
5704;SDS011;2877;48.238;11.160;2023-04-25T01:57:12;2.13;;;1.83;;
5704;SDS011;2877;48.238;11.160;2023-04-25T01:59:38;2.87;;;2.33;;
5704;SDS011;2877;48.238;11.160;2023-04-25T02:02:05;2.30;;;2.10;;
5704;SDS011;2877;48.238;11.160;2023-04-25T02:04:31;2.20;;;2.10;;
5704;SDS011;2877;48.238;11.160;2023-04-25T02:06:57;2.93;;;2.23;;
5704;SDS011;2877;48.238;11.160;2023-04-25T02:09:22;2.40;;;2.20;;
5704;SDS011;2877;48.238;11.160;2023-04-25T02:11:48;2.50;;;2.30;;
5704;SDS011;2877;48.238;11.160;2023-04-25T02:14:14;2.30;;;2.20;;
5704;SDS011;2877;48.238;11.160;2023-04-25T02:16:39;3.27;;;1.93;;
5704;SDS011;2877;48.238;11.160;2023-04-25T02:19:05;2.70;;;2.43;;
5704;SDS011;2877;48.238;11.160;2023-04-25T02:21:31;2.20;;;2.10;;
5704;SDS011;2877;48.238;11.160;2023-04-25T02:23:57;2.00;;;1.83;;
5704;SDS011;2877;48.238;11.160;2023-04-25T02:26:23;1.83;;;1.73;;
5704;SDS011;2877;48.238;11.160;2023-04-25T02:28:49;4.30;;;2.23;;
5704;SDS011;2877;48.238;11.160;2023-04-25T02:31:15;3.17;;;2.20;;
5704;SDS011;2877;48.238;11.160;2023-04-25T02:33:41;2.40;;;1.90;;
5704;SDS011;2877;48.238;11.160;2023-04-25T02:36:07;2.80;;;2.60;;
5704;SDS011;2877;48.238;11.160;2023-04-25T02:38:32;2.83;;;2.20;;
5704;SDS011;2877;48.238;11.160;2023-04-25T02:40:58;3.03;;;2.30;;
5704;SDS011;2877;48.238;11.160;2023-04-25T02:43:24;2.47;;;2.30;;
5704;SDS011;2877;48.238;11.160;2023-04-25T02:45:50;2.83;;;2.10;;
5704;SDS011;2877;48.238;11.160;2023-04-25T02:48:15;3.10;;;2.43;;
5704;SDS011;2877;48.238;11.160;2023-04-25T02:50:41;2.70;;;2.50;;
5704;SDS011;2877;48.238;11.160;2023-04-25T02:53:07;3.07;;;1.97;;
5704;SDS011;2877;48.238;11.160;2023-04-25T02:55:32;2.87;;;2.23;;
5704;SDS011;2877;48.238;11.160;2023-04-25T02:57:58;4.30;;;2.20;;
5704;SDS011;2877;48.238;11.160;2023-04-25T03:00:24;2.20;;;2.03;;
5704;SDS011;2877;48.238;11.160;2023-04-25T03:02:50;3.90;;;3.00;;
5704;SDS011;2877;48.238;11.160;2023-04-25T03:05:15;2.30;;;1.93;;
5704;SDS011;2877;48.238;11.160;2023-04-25T03:07:41;1.70;;;1.60;;
5704;SDS011;2877;48.238;11.160;2023-04-25T03:10:08;2.93;;;1.90;;
5704;SDS011;2877;48.238;11.160;2023-04-25T03:12:34;1.97;;;1.80;;
5704;SDS011;2877;48.238;11.160;2023-04-25T03:15:00;1.90;;;1.80;;
5704;SDS011;2877;48.238;11.160;2023-04-25T03:17:26;2.70;;;2.00;;
5704;SDS011;2877;48.238;11.160;2023-04-25T03:19:51;1.90;;;1.80;;
5704;SDS011;2877;48.238;11.160;2023-04-25T03:22:17;2.43;;;1.70;;
5704;SDS011;2877;48.238;11.160;2023-04-25T03:24:43;1.20;;;1.20;;
5704;SDS011;2877;48.238;11.160;2023-04-25T03:27:08;1.90;;;1.70;;
5704;SDS011;2877;48.238;11.160;2023-04-25T03:29:34;1.60;;;1.50;;
5704;SDS011;2877;48.238;11.160;2023-04-25T03:32:00;4.20;;;2.37;;
5704;SDS011;2877;48.238;11.160;2023-04-25T03:34:26;1.90;;;1.80;;
5704;SDS011;2877;48.238;11.160;2023-04-25T03:36:51;1.80;;;1.70;;
5704;SDS011;2877;48.238;11.160;2023-04-25T03:39:17;2.43;;;1.70;;
5704;SDS011;2877;48.238;11.160;2023-04-25T03:41:42;2.57;;;1.57;;
5704;SDS011;2877;48.238;11.160;2023-04-25T03:44:08;1.40;;;1.30;;
5704;SDS011;2877;48.238;11.160;2023-04-25T03:46:33;1.60;;;1.37;;
5704;SDS011;2877;48.238;11.160;2023-04-25T03:48:59;1.47;;;1.37;;
5704;SDS011;2877;48.238;11.160;2023-04-25T03:51:25;1.90;;;1.70;;
5704;SDS011;2877;48.238;11.160;2023-04-25T03:53:51;1.30;;;1.20;;
5704;SDS011;2877;48.238;11.160;2023-04-25T03:56:17;2.03;;;1.33;;
5704;SDS011;2877;48.238;11.160;2023-04-25T03:58:42;1.40;;;1.30;;
5704;SDS011;2877;48.238;11.160;2023-04-25T04:01:08;1.90;;;1.70;;
5704;SDS011;2877;48.238;11.160;2023-04-25T04:03:34;1.50;;;1.40;;
5704;SDS011;2877;48.238;11.160;2023-04-25T04:06:01;1.33;;;1.17;;
5704;SDS011;2877;48.238;11.160;2023-04-25T04:08:29;1.63;;;1.53;;
5704;SDS011;2877;48.238;11.160;2023-04-25T04:10:55;1.67;;;1.10;;
5704;SDS011;2877;48.238;11.160;2023-04-25T04:13:21;1.27;;;1.27;;
5704;SDS011;2877;48.238;11.160;2023-04-25T04:15:47;1.70;;;1.60;;
5704;SDS011;2877;48.238;11.160;2023-04-25T04:18:12;2.00;;;1.83;;
5704;SDS011;2877;48.238;11.160;2023-04-25T04:20:38;4.60;;;1.50;;
5704;SDS011;2877;48.238;11.160;2023-04-25T04:23:03;3.80;;;1.67;;
5704;SDS011;2877;48.238;11.160;2023-04-25T04:25:30;3.20;;;1.50;;
5704;SDS011;2877;48.238;11.160;2023-04-25T04:27:55;1.63;;;1.53;;
5704;SDS011;2877;48.238;11.160;2023-04-25T04:30:22;1.73;;;1.50;;
5704;SDS011;2877;48.238;11.160;2023-04-25T04:32:54;1.50;;;1.40;;
5704;SDS011;2877;48.238;11.160;2023-04-25T04:35:20;1.90;;;1.50;;
5704;SDS011;2877;48.238;11.160;2023-04-25T04:37:46;1.93;;;1.20;;
5704;SDS011;2877;48.238;11.160;2023-04-25T04:40:12;3.33;;;1.70;;
5704;SDS011;2877;48.238;11.160;2023-04-25T04:42:40;1.90;;;1.80;;
5704;SDS011;2877;48.238;11.160;2023-04-25T04:45:07;3.50;;;2.70;;
5704;SDS011;2877;48.238;11.160;2023-04-25T04:47:33;1.90;;;1.80;;
5704;SDS011;2877;48.238;11.160;2023-04-25T04:50:01;1.70;;;1.60;;
5704;SDS011;2877;48.238;11.160;2023-04-25T04:52:37;1.47;;;1.40;;
5704;SDS011;2877;48.238;11.160;2023-04-25T04:55:03;2.70;;;1.60;;
5704;SDS011;2877;48.238;11.160;2023-04-25T04:57:30;2.17;;;2.00;;
5704;SDS011;2877;48.238;11.160;2023-04-25T04:59:57;1.67;;;1.37;;
5704;SDS011;2877;48.238;11.160;2023-04-25T05:02:23;1.97;;;1.80;;
5704;SDS011;2877;48.238;11.160;2023-04-25T05:04:49;2.30;;;1.57;;
5704;SDS011;2877;48.238;11.160;2023-04-25T05:07:16;3.07;;;2.07;;
5704;SDS011;2877;48.238;11.160;2023-04-25T05:09:42;2.10;;;1.90;;
5704;SDS011;2877;48.238;11.160;2023-04-25T05:12:07;2.20;;;2.00;;
5704;SDS011;2877;48.238;11.160;2023-04-25T05:14:33;3.60;;;2.20;;
5704;SDS011;2877;48.238;11.160;2023-04-25T05:16:59;3.73;;;2.37;;
5704;SDS011;2877;48.238;11.160;2023-04-25T05:19:25;3.67;;;2.30;;
5704;SDS011;2877;48.238;11.160;2023-04-25T05:21:50;8.13;;;2.03;;
5704;SDS011;2877;48.238;11.160;2023-04-25T05:24:16;4.50;;;2.10;;
5704;SDS011;2877;48.238;11.160;2023-04-25T05:26:41;2.30;;;2.10;;
5704;SDS011;2877;48.238;11.160;2023-04-25T05:29:07;6.03;;;3.00;;
5704;SDS011;2877;48.238;11.160;2023-04-25T05:31:32;2.13;;;1.80;;
5704;SDS011;2877;48.238;11.160;2023-04-25T05:33:58;2.30;;;2.10;;
5704;SDS011;2877;48.238;11.160;2023-04-25T05:36:24;2.90;;;2.40;;
5704;SDS011;2877;48.238;11.160;2023-04-25T05:38:50;4.77;;;2.40;;
5704;SDS011;2877;48.238;11.160;2023-04-25T05:41:16;6.60;;;2.43;;
5704;SDS011;2877;48.238;11.160;2023-04-25T05:43:41;2.70;;;2.50;;
5704;SDS011;2877;48.238;11.160;2023-04-25T05:46:12;3.00;;;2.73;;
5704;SDS011;2877;48.238;11.160;2023-04-25T05:48:38;6.70;;;2.77;;
5704;SDS011;2877;48.238;11.160;2023-04-25T05:51:04;2.57;;;2.30;;
5704;SDS011;2877;48.238;11.160;2023-04-25T05:53:29;5.47;;;2.60;;
5704;SDS011;2877;48.238;11.160;2023-04-25T05:55:55;3.93;;;2.53;;
5704;SDS011;2877;48.238;11.160;2023-04-25T05:58:20;3.00;;;2.70;;
5704;SDS011;2877;48.238;11.160;2023-04-25T06:00:46;3.00;;;2.40;;
5704;SDS011;2877;48.238;11.160;2023-04-25T06:03:12;5.47;;;2.40;;
5704;SDS011;2877;48.238;11.160;2023-04-25T06:05:41;3.03;;;2.63;;
5704;SDS011;2877;48.238;11.160;2023-04-25T06:08:07;2.13;;;2.03;;
5704;SDS011;2877;48.238;11.160;2023-04-25T06:10:33;5.63;;;2.47;;
5704;SDS011;2877;48.238;11.160;2023-04-25T06:12:58;3.80;;;2.40;;
5704;SDS011;2877;48.238;11.160;2023-04-25T06:15:24;2.60;;;2.27;;
5704;SDS011;2877;48.238;11.160;2023-04-25T06:17:49;2.40;;;2.20;;
5704;SDS011;2877;48.238;11.160;2023-04-25T06:20:15;4.13;;;2.60;;
5704;SDS011;2877;48.238;11.160;2023-04-25T06:22:41;3.57;;;2.80;;
5704;SDS011;2877;48.238;11.160;2023-04-25T06:25:06;2.70;;;2.47;;
5704;SDS011;2877;48.238;11.160;2023-04-25T06:27:33;4.87;;;2.03;;
5704;SDS011;2877;48.238;11.160;2023-04-25T06:29:58;3.10;;;2.17;;
5704;SDS011;2877;48.238;11.160;2023-04-25T06:32:24;3.37;;;2.60;;
5704;SDS011;2877;48.238;11.160;2023-04-25T06:34:51;3.57;;;1.87;;
5704;SDS011;2877;48.238;11.160;2023-04-25T06:37:16;2.50;;;1.87;;
5704;SDS011;2877;48.238;11.160;2023-04-25T06:39:42;2.10;;;1.80;;
5704;SDS011;2877;48.238;11.160;2023-04-25T06:42:07;2.37;;;2.07;;
5704;SDS011;2877;48.238;11.160;2023-04-25T06:44:33;1.93;;;1.83;;
5704;SDS011;2877;48.238;11.160;2023-04-25T06:46:58;2.67;;;1.73;;
5704;SDS011;2877;48.238;11.160;2023-04-25T06:49:24;2.60;;;1.80;;
5704;SDS011;2877;48.238;11.160;2023-04-25T06:51:50;1.70;;;1.60;;
5704;SDS011;2877;48.238;11.160;2023-04-25T06:54:15;1.77;;;1.40;;
5704;SDS011;2877;48.238;11.160;2023-04-25T06:56:41;1.60;;;1.50;;
5704;SDS011;2877;48.238;11.160;2023-04-25T06:59:06;2.00;;;1.63;;
5704;SDS011;2877;48.238;11.160;2023-04-25T07:01:32;1.70;;;1.60;;
5704;SDS011;2877;48.238;11.160;2023-04-25T07:03:58;2.60;;;1.73;;
5704;SDS011;2877;48.238;11.160;2023-04-25T07:06:23;2.30;;;1.50;;
5704;SDS011;2877;48.238;11.160;2023-04-25T07:08:50;1.67;;;1.57;;
5704;SDS011;2877;48.238;11.160;2023-04-25T07:11:16;1.73;;;1.63;;
5704;SDS011;2877;48.238;11.160;2023-04-25T07:13:41;2.80;;;1.97;;
5704;SDS011;2877;48.238;11.160;2023-04-25T07:16:07;2.10;;;1.90;;
5704;SDS011;2877;48.238;11.160;2023-04-25T07:18:32;3.17;;;2.20;;
5704;SDS011;2877;48.238;11.160;2023-04-25T07:20:58;1.97;;;1.80;;
5704;SDS011;2877;48.238;11.160;2023-04-25T07:23:23;3.40;;;1.70;;
5704;SDS011;2877;48.238;11.160;2023-04-25T07:25:49;3.70;;;1.77;;
5704;SDS011;2877;48.238;11.160;2023-04-25T07:28:14;1.70;;;1.47;;
5704;SDS011;2877;48.238;11.160;2023-04-25T07:30:40;1.40;;;1.30;;
5704;SDS011;2877;48.238;11.160;2023-04-25T07:33:06;2.77;;;1.47;;
5704;SDS011;2877;48.238;11.160;2023-04-25T07:35:31;1.93;;;1.63;;
5704;SDS011;2877;48.238;11.160;2023-04-25T07:37:57;1.63;;;1.53;;
5704;SDS011;2877;48.238;11.160;2023-04-25T07:40:23;1.83;;;1.67;;
5704;SDS011;2877;48.238;11.160;2023-04-25T07:42:49;3.20;;;1.60;;
5704;SDS011;2877;48.238;11.160;2023-04-25T07:45:15;4.33;;;1.70;;
5704;SDS011;2877;48.238;11.160;2023-04-25T07:47:41;1.57;;;1.47;;
5704;SDS011;2877;48.238;11.160;2023-04-25T07:50:06;2.87;;;1.77;;
5704;SDS011;2877;48.238;11.160;2023-04-25T07:52:33;3.33;;;1.83;;
5704;SDS011;2877;48.238;11.160;2023-04-25T07:54:59;1.50;;;1.37;;
5704;SDS011;2877;48.238;11.160;2023-04-25T07:57:25;1.20;;;1.20;;
5704;SDS011;2877;48.238;11.160;2023-04-25T07:59:50;1.40;;;1.30;;
5704;SDS011;2877;48.238;11.160;2023-04-25T08:02:16;1.60;;;1.47;;
5704;SDS011;2877;48.238;11.160;2023-04-25T08:04:41;4.77;;;1.50;;
5704;SDS011;2877;48.238;11.160;2023-04-25T08:07:07;2.97;;;1.63;;
5704;SDS011;2877;48.238;11.160;2023-04-25T08:09:32;2.80;;;1.73;;
5704;SDS011;2877;48.238;11.160;2023-04-25T08:12:00;1.30;;;1.20;;
5704;SDS011;2877;48.238;11.160;2023-04-25T08:14:27;4.40;;;1.87;;
5704;SDS011;2877;48.238;11.160;2023-04-25T08:16:53;1.50;;;1.40;;
5704;SDS011;2877;48.238;11.160;2023-04-25T08:19:19;2.20;;;1.40;;
5704;SDS011;2877;48.238;11.160;2023-04-25T08:21:45;2.07;;;1.27;;
5704;SDS011;2877;48.238;11.160;2023-04-25T08:24:10;2.50;;;1.40;;
5704;SDS011;2877;48.238;11.160;2023-04-25T08:26:36;3.50;;;1.17;;
5704;SDS011;2877;48.238;11.160;2023-04-25T08:29:02;2.30;;;1.40;;
5704;SDS011;2877;48.238;11.160;2023-04-25T08:31:27;2.33;;;1.37;;
5704;SDS011;2877;48.238;11.160;2023-04-25T08:33:53;2.00;;;1.80;;
5704;SDS011;2877;48.238;11.160;2023-04-25T08:36:18;1.77;;;1.53;;
5704;SDS011;2877;48.238;11.160;2023-04-25T08:38:44;2.40;;;1.37;;
5704;SDS011;2877;48.238;11.160;2023-04-25T08:41:11;3.90;;;1.60;;
5704;SDS011;2877;48.238;11.160;2023-04-25T08:43:37;1.80;;;1.60;;
5704;SDS011;2877;48.238;11.160;2023-04-25T08:46:05;2.53;;;1.47;;
5704;SDS011;2877;48.238;11.160;2023-04-25T08:48:33;1.70;;;1.60;;
5704;SDS011;2877;48.238;11.160;2023-04-25T08:51:01;1.67;;;1.50;;
5704;SDS011;2877;48.238;11.160;2023-04-25T08:53:30;1.80;;;1.70;;
5704;SDS011;2877;48.238;11.160;2023-04-25T08:55:58;1.70;;;1.57;;
5704;SDS011;2877;48.238;11.160;2023-04-25T08:58:26;1.57;;;1.47;;
5704;SDS011;2877;48.238;11.160;2023-04-25T09:00:53;1.30;;;1.20;;
5704;SDS011;2877;48.238;11.160;2023-04-25T09:03:18;1.50;;;1.40;;
5704;SDS011;2877;48.238;11.160;2023-04-25T09:05:44;1.47;;;1.20;;
5704;SDS011;2877;48.238;11.160;2023-04-25T09:08:10;1.40;;;1.00;;
5704;SDS011;2877;48.238;11.160;2023-04-25T09:10:36;2.23;;;1.23;;
5704;SDS011;2877;48.238;11.160;2023-04-25T09:18:14;1.27;;;1.20;;
5704;SDS011;2877;48.238;11.160;2023-04-25T09:20:53;1.53;;;1.43;;
5704;SDS011;2877;48.238;11.160;2023-04-25T09:23:20;1.50;;;1.40;;
5704;SDS011;2877;48.238;11.160;2023-04-25T09:25:47;1.43;;;1.33;;
5704;SDS011;2877;48.238;11.160;2023-04-25T09:28:14;2.47;;;1.27;;
5704;SDS011;2877;48.238;11.160;2023-04-25T09:30:40;1.37;;;1.27;;
5704;SDS011;2877;48.238;11.160;2023-04-25T09:33:06;1.33;;;1.23;;
5704;SDS011;2877;48.238;11.160;2023-04-25T09:35:39;1.90;;;1.10;;
5704;SDS011;2877;48.238;11.160;2023-04-25T09:38:12;4.50;;;1.30;;
5704;SDS011;2877;48.238;11.160;2023-04-25T09:40:43;2.50;;;1.30;;
5704;SDS011;2877;48.238;11.160;2023-04-25T09:43:10;1.20;;;1.20;;
5704;SDS011;2877;48.238;11.160;2023-04-25T09:45:47;1.60;;;1.10;;
5704;SDS011;2877;48.238;11.160;2023-04-25T09:48:18;1.13;;;1.13;;
5704;SDS011;2877;48.238;11.160;2023-04-25T09:50:45;4.17;;;1.10;;
5704;SDS011;2877;48.238;11.160;2023-04-25T09:53:30;1.20;;;1.20;;
5704;SDS011;2877;48.238;11.160;2023-04-25T09:55:57;1.53;;;1.30;;
5704;SDS011;2877;48.238;11.160;2023-04-25T09:58:25;1.53;;;1.20;;
5704;SDS011;2877;48.238;11.160;2023-04-25T10:00:55;1.70;;;1.30;;
5704;SDS011;2877;48.238;11.160;2023-04-25T10:03:25;1.53;;;1.00;;
5704;SDS011;2877;48.238;11.160;2023-04-25T10:05:51;1.70;;;1.60;;
5704;SDS011;2877;48.238;11.160;2023-04-25T10:08:18;1.27;;;1.17;;
5704;SDS011;2877;48.238;11.160;2023-04-25T10:10:44;1.20;;;1.10;;
5704;SDS011;2877;48.238;11.160;2023-04-25T10:13:11;3.30;;;1.33;;
5704;SDS011;2877;48.238;11.160;2023-04-25T10:15:39;3.07;;;1.10;;
5704;SDS011;2877;48.238;11.160;2023-04-25T10:18:25;1.33;;;1.20;;
5704;SDS011;2877;48.238;11.160;2023-04-25T10:20:53;1.40;;;1.30;;
5704;SDS011;2877;48.238;11.160;2023-04-25T10:23:20;3.90;;;1.13;;
5704;SDS011;2877;48.238;11.160;2023-04-25T10:25:45;0.67;;;0.67;;
5704;SDS011;2877;48.238;11.160;2023-04-25T10:28:13;1.10;;;1.00;;
5704;SDS011;2877;48.238;11.160;2023-04-25T10:30:51;1.33;;;1.10;;
5704;SDS011;2877;48.238;11.160;2023-04-25T10:33:30;1.70;;;1.00;;
5704;SDS011;2877;48.238;11.160;2023-04-25T10:35:58;1.00;;;0.90;;
5704;SDS011;2877;48.238;11.160;2023-04-25T10:38:32;1.67;;;0.80;;
5704;SDS011;2877;48.238;11.160;2023-04-25T10:41:05;0.60;;;0.60;;
5704;SDS011;2877;48.238;11.160;2023-04-25T10:43:34;1.73;;;0.63;;
5704;SDS011;2877;48.238;11.160;2023-04-25T10:46:16;1.57;;;1.00;;
5704;SDS011;2877;48.238;11.160;2023-04-25T10:48:53;1.60;;;1.20;;
5704;SDS011;2877;48.238;11.160;2023-04-25T10:51:24;1.73;;;1.17;;
5704;SDS011;2877;48.238;11.160;2023-04-25T10:59:17;1.57;;;1.10;;
5704;SDS011;2877;48.238;11.160;2023-04-25T11:01:44;2.30;;;1.57;;
5704;SDS011;2877;48.238;11.160;2023-04-25T11:04:32;1.37;;;1.27;;
5704;SDS011;2877;48.238;11.160;2023-04-25T11:07:12;2.90;;;1.57;;
5704;SDS011;2877;48.238;11.160;2023-04-25T11:09:48;1.67;;;1.57;;
5704;SDS011;2877;48.238;11.160;2023-04-25T11:12:14;1.23;;;1.23;;
5704;SDS011;2877;48.238;11.160;2023-04-25T11:14:41;1.60;;;1.50;;
5704;SDS011;2877;48.238;11.160;2023-04-25T11:17:06;1.37;;;1.37;;
5704;SDS011;2877;48.238;11.160;2023-04-25T11:19:32;1.63;;;1.53;;
5704;SDS011;2877;48.238;11.160;2023-04-25T11:21:58;1.97;;;1.87;;
5704;SDS011;2877;48.238;11.160;2023-04-25T11:24:25;3.10;;;1.60;;
5704;SDS011;2877;48.238;11.160;2023-04-25T11:26:59;1.30;;;1.20;;
5704;SDS011;2877;48.238;11.160;2023-04-25T11:29:29;1.10;;;1.00;;
5704;SDS011;2877;48.238;11.160;2023-04-25T11:31:56;1.60;;;1.50;;
5704;SDS011;2877;48.238;11.160;2023-04-25T11:34:23;1.57;;;1.47;;
5704;SDS011;2877;48.238;11.160;2023-04-25T11:36:49;1.23;;;1.20;;
5704;SDS011;2877;48.238;11.160;2023-04-25T11:39:17;1.83;;;1.73;;
5704;SDS011;2877;48.238;11.160;2023-04-25T11:41:43;1.60;;;1.50;;
5704;SDS011;2877;48.238;11.160;2023-04-25T11:44:09;1.30;;;1.20;;
5704;SDS011;2877;48.238;11.160;2023-04-25T11:46:34;1.50;;;1.40;;
5704;SDS011;2877;48.238;11.160;2023-04-25T11:49:00;1.10;;;1.10;;
5704;SDS011;2877;48.238;11.160;2023-04-25T11:51:26;1.27;;;1.27;;
5704;SDS011;2877;48.238;11.160;2023-04-25T11:53:52;1.63;;;1.37;;
5704;SDS011;2877;48.238;11.160;2023-04-25T11:56:17;1.30;;;1.30;;
5704;SDS011;2877;48.238;11.160;2023-04-25T12:01:25;1.80;;;1.60;;
5704;SDS011;2877;48.238;11.160;2023-04-25T12:03:58;3.33;;;2.20;;
5704;SDS011;2877;48.238;11.160;2023-04-25T12:06:36;6.10;;;3.77;;
5704;SDS011;2877;48.238;11.160;2023-04-25T12:09:09;8.93;;;4.30;;
5704;SDS011;2877;48.238;11.160;2023-04-25T12:11:41;11.63;;;5.33;;
5704;SDS011;2877;48.238;11.160;2023-04-25T12:14:11;6.17;;;2.37;;
5704;SDS011;2877;48.238;11.160;2023-04-25T12:16:41;2.80;;;2.43;;
5704;SDS011;2877;48.238;11.160;2023-04-25T12:19:07;2.50;;;1.83;;
5704;SDS011;2877;48.238;11.160;2023-04-25T12:21:33;3.03;;;1.83;;
5704;SDS011;2877;48.238;11.160;2023-04-25T12:24:18;0.90;;;0.90;;
5704;SDS011;2877;48.238;11.160;2023-04-25T12:26:53;2.30;;;0.90;;
5704;SDS011;2877;48.238;11.160;2023-04-25T12:29:20;0.93;;;0.93;;
5704;SDS011;2877;48.238;11.160;2023-04-25T12:31:47;0.90;;;0.90;;
5704;SDS011;2877;48.238;11.160;2023-04-25T12:34:13;0.93;;;0.80;;
5704;SDS011;2877;48.238;11.160;2023-04-25T12:36:39;1.10;;;0.90;;
5704;SDS011;2877;48.238;11.160;2023-04-25T12:39:05;1.27;;;1.27;;
5704;SDS011;2877;48.238;11.160;2023-04-25T12:41:31;1.20;;;1.10;;
5704;SDS011;2877;48.238;11.160;2023-04-25T12:43:57;1.93;;;1.47;;
5704;SDS011;2877;48.238;11.160;2023-04-25T12:46:23;1.10;;;1.00;;
5704;SDS011;2877;48.238;11.160;2023-04-25T12:48:48;1.33;;;1.23;;
5704;SDS011;2877;48.238;11.160;2023-04-25T12:51:14;1.70;;;1.50;;
5704;SDS011;2877;48.238;11.160;2023-04-25T12:53:40;1.67;;;1.33;;
5704;SDS011;2877;48.238;11.160;2023-04-25T12:56:06;1.50;;;1.40;;
5704;SDS011;2877;48.238;11.160;2023-04-25T12:58:32;1.60;;;1.50;;
5704;SDS011;2877;48.238;11.160;2023-04-25T13:00:58;1.43;;;1.33;;
5704;SDS011;2877;48.238;11.160;2023-04-25T13:03:24;1.40;;;1.30;;
5704;SDS011;2877;48.238;11.160;2023-04-25T13:05:50;1.90;;;1.80;;
5704;SDS011;2877;48.238;11.160;2023-04-25T13:08:17;1.70;;;1.60;;
5704;SDS011;2877;48.238;11.160;2023-04-25T13:10:43;1.60;;;1.50;;
5704;SDS011;2877;48.238;11.160;2023-04-25T13:13:09;9.60;;;1.80;;
5704;SDS011;2877;48.238;11.160;2023-04-25T13:15:34;2.67;;;1.50;;
5704;SDS011;2877;48.238;11.160;2023-04-25T13:18:00;1.70;;;1.60;;
5704;SDS011;2877;48.238;11.160;2023-04-25T13:20:26;1.70;;;1.60;;
5704;SDS011;2877;48.238;11.160;2023-04-25T13:22:51;2.10;;;2.00;;
5704;SDS011;2877;48.238;11.160;2023-04-25T13:25:17;1.53;;;1.43;;
5704;SDS011;2877;48.238;11.160;2023-04-25T13:27:42;1.97;;;1.70;;
5704;SDS011;2877;48.238;11.160;2023-04-25T13:30:09;1.40;;;1.30;;
5704;SDS011;2877;48.238;11.160;2023-04-25T13:32:35;1.50;;;1.27;;
5704;SDS011;2877;48.238;11.160;2023-04-25T13:35:09;0.87;;;0.87;;
5704;SDS011;2877;48.238;11.160;2023-04-25T13:37:36;1.00;;;1.00;;
5704;SDS011;2877;48.238;11.160;2023-04-25T13:40:08;1.10;;;1.10;;
5704;SDS011;2877;48.238;11.160;2023-04-25T13:42:36;1.63;;;1.53;;
5704;SDS011;2877;48.238;11.160;2023-04-25T13:45:02;4.20;;;1.20;;
5704;SDS011;2877;48.238;11.160;2023-04-25T13:47:28;1.83;;;1.73;;
5704;SDS011;2877;48.238;11.160;2023-04-25T13:49:55;1.27;;;1.27;;
5704;SDS011;2877;48.238;11.160;2023-04-25T13:52:20;2.10;;;1.40;;
5704;SDS011;2877;48.238;11.160;2023-04-25T13:54:46;1.10;;;1.10;;
5704;SDS011;2877;48.238;11.160;2023-04-25T13:57:12;1.90;;;1.80;;
5704;SDS011;2877;48.238;11.160;2023-04-25T13:59:38;1.20;;;1.20;;
5704;SDS011;2877;48.238;11.160;2023-04-25T14:02:04;2.77;;;1.50;;
5704;SDS011;2877;48.238;11.160;2023-04-25T14:04:30;1.47;;;1.37;;
5704;SDS011;2877;48.238;11.160;2023-04-25T14:06:55;1.40;;;1.30;;
5704;SDS011;2877;48.238;11.160;2023-04-25T14:09:21;1.00;;;1.00;;
5704;SDS011;2877;48.238;11.160;2023-04-25T14:11:50;2.07;;;1.93;;
5704;SDS011;2877;48.238;11.160;2023-04-25T14:14:17;1.30;;;1.30;;
5704;SDS011;2877;48.238;11.160;2023-04-25T14:16:43;1.80;;;1.70;;
5704;SDS011;2877;48.238;11.160;2023-04-25T14:19:08;2.20;;;2.00;;
5704;SDS011;2877;48.238;11.160;2023-04-25T14:21:34;5.43;;;3.57;;
5704;SDS011;2877;48.238;11.160;2023-04-25T14:24:00;2.30;;;2.20;;
5704;SDS011;2877;48.238;11.160;2023-04-25T14:26:25;1.93;;;1.83;;
5704;SDS011;2877;48.238;11.160;2023-04-25T14:28:51;3.83;;;3.53;;
5704;SDS011;2877;48.238;11.160;2023-04-25T14:31:17;5.90;;;5.43;;
5704;SDS011;2877;48.238;11.160;2023-04-25T14:33:42;3.30;;;3.00;;
5704;SDS011;2877;48.238;11.160;2023-04-25T14:36:08;3.00;;;2.80;;
5704;SDS011;2877;48.238;11.160;2023-04-25T14:38:35;2.17;;;2.03;;
5704;SDS011;2877;48.238;11.160;2023-04-25T14:41:01;1.80;;;1.70;;
5704;SDS011;2877;48.238;11.160;2023-04-25T14:43:28;1.87;;;1.77;;
5704;SDS011;2877;48.238;11.160;2023-04-25T14:45:53;2.47;;;2.27;;
5704;SDS011;2877;48.238;11.160;2023-04-25T14:48:19;1.70;;;1.60;;
5704;SDS011;2877;48.238;11.160;2023-04-25T14:50:45;1.30;;;1.20;;
5704;SDS011;2877;48.238;11.160;2023-04-25T14:53:11;0.83;;;0.83;;
5704;SDS011;2877;48.238;11.160;2023-04-25T14:55:37;1.40;;;1.30;;
5704;SDS011;2877;48.238;11.160;2023-04-25T14:58:03;1.63;;;1.20;;
5704;SDS011;2877;48.238;11.160;2023-04-25T15:00:28;1.83;;;1.73;;
5704;SDS011;2877;48.238;11.160;2023-04-25T15:02:55;1.37;;;1.33;;
5704;SDS011;2877;48.238;11.160;2023-04-25T15:05:21;2.00;;;1.90;;
5704;SDS011;2877;48.238;11.160;2023-04-25T15:07:47;1.40;;;1.40;;
5704;SDS011;2877;48.238;11.160;2023-04-25T15:10:13;1.53;;;1.43;;
5704;SDS011;2877;48.238;11.160;2023-04-25T15:12:40;1.77;;;1.67;;